Time;durP1;ratioP1;P1;durP2;ratioP2;P2;SDS_P1;SDS_P2;PMS_P1;PMS_P2;Temp;Humidity;BMP_temperature;BMP_pressure;BME280_temperature;BME280_humidity;BME280_pressure;Samples;Min_cycle;Max_cycle;Signal;HPM_P1;HPM_P2
2022/12/31 00:01:13;;;;;;;;;;;;;;;17.18;68.76;101910.75;7405151;19;1500;-65
2022/12/31 00:03:42;;;;;;;;;;;;;;;17.69;67.19;101921.78;7405737;19;1667;-66
2022/12/31 00:06:21;;;;;;;;;;;;;;;18.11;65.99;101921.78;7337991;19;12928;-63
2022/12/31 00:08:50;;;;;;;;;;;;;;;18.47;65.04;101917.59;7399673;19;1318;-64
2022/12/31 00:11:19;;;;;;;;;;;;;;;18.66;64.36;101933.25;7407452;19;1369;-63
2022/12/31 00:13:48;;;;;;;;;;;;;;;18.90;63.78;101924.53;7401103;19;1566;-63
2022/12/31 00:16:17;;;;;;;;;;;;;;;18.86;63.47;101923.88;7404231;19;1859;-64
2022/12/31 00:18:46;;;;;;;;;;;;;;;18.43;64.60;101937.53;7401821;19;1242;-63
2022/12/31 00:21:15;;;;;;;;;;;;;;;17.84;65.75;101927.97;7406132;19;1559;-64
2022/12/31 00:23:46;;;;;;;;;;;;;;;17.57;66.73;101937.75;7406999;19;1388;-64
2022/12/31 00:26:16;;;;;;;;;;;;;;;17.36;67.33;101950.66;7403971;19;1552;-63
2022/12/31 00:28:45;;;;;;;;;;;;;;;17.24;67.67;101942.44;7404975;19;1721;-63
2022/12/31 00:31:15;;;;;;;;;;;;;;;17.16;67.28;101949.22;7405101;19;1421;-64
2022/12/31 00:33:44;;;;;;;;;;;;;;;17.07;67.37;101943.50;7405444;19;1282;-64
2022/12/31 00:36:13;;;;;;;;;;;;;;;17.01;67.69;101945.66;7406381;19;1876;-63
2022/12/31 00:38:42;;;;;;;;;;;;;;;16.96;67.19;101951.28;7406205;19;1349;-64
2022/12/31 00:41:14;;;;;;;;;;;;;;;16.97;67.31;101947.69;7405899;19;1745;-64
2022/12/31 00:43:43;;;;;;;;;;;;;;;16.93;67.08;101942.59;7406071;19;1772;-63
2022/12/31 00:46:11;;;;;;;;;;;;;;;16.90;66.84;101939.16;7403032;19;1536;-64
2022/12/31 00:48:40;;;;;;;;;;;;;;;16.88;67.13;101950.91;7406213;19;1511;-63
2022/12/31 00:51:10;;;;;;;;;;;;;;;16.85;66.94;101956.41;7405316;19;1618;-63
2022/12/31 00:53:39;;;;;;;;;;;;;;;16.81;66.54;101962.88;7406389;19;1384;-64
2022/12/31 00:56:09;;;;;;;;;;;;;;;16.79;66.55;101951.41;7404226;19;1854;-63
2022/12/31 00:58:40;;;;;;;;;;;;;;;16.77;66.26;101953.31;7404373;19;1482;-64
2022/12/31 01:01:12;;;;;;;;;;;;;;;16.74;66.73;101961.53;7400342;19;1421;-64
2022/12/31 01:03:41;;;;;;;;;;;;;;;16.71;66.78;101962.56;7405716;19;1497;-64
2022/12/31 01:06:09;;;;;;;;;;;;;;;16.68;66.49;101971.63;7404345;19;1649;-64
2022/12/31 01:08:37;;;;;;;;;;;;;;;16.64;66.08;101953.19;7405372;19;1392;-65
2022/12/31 01:11:21;;;;;;;;;;;;;;;16.62;66.63;101965.78;7404465;19;1642;-64
2022/12/31 01:13:53;;;;;;;;;;;;;;;16.62;66.41;101966.63;7404095;19;1532;-63
2022/12/31 01:16:23;;;;;;;;;;;;;;;16.58;66.16;101972.25;7404771;19;1849;-64
2022/12/31 01:18:52;;;;;;;;;;;;;;;16.55;66.37;101954.59;7404328;19;1468;-63
2022/12/31 01:21:20;;;;;;;;;;;;;;;16.57;66.05;101960.69;7404346;19;1365;-64
2022/12/31 01:23:49;;;;;;;;;;;;;;;16.53;65.49;101961.84;7406026;19;1452;-63
2022/12/31 01:26:18;;;;;;;;;;;;;;;16.50;66.15;101970.03;7405163;19;1724;-64
2022/12/31 01:28:47;;;;;;;;;;;;;;;16.48;65.71;101974.59;7405083;19;1682;-64
2022/12/31 01:31:20;;;;;;;;;;;;;;;16.46;65.66;101955.16;7403031;19;1563;-64
2022/12/31 01:33:48;;;;;;;;;;;;;;;16.49;65.69;101970.97;7403680;19;1671;-64
2022/12/31 01:36:18;;;;;;;;;;;;;;;16.49;64.96;101952.28;7403756;19;1854;-64
2022/12/31 01:38:47;;;;;;;;;;;;;;;16.45;65.60;101943.63;7404635;19;1290;-64
2022/12/31 01:41:17;;;;;;;;;;;;;;;16.42;65.74;101958.94;7403937;19;1674;-64
2022/12/31 01:43:47;;;;;;;;;;;;;;;16.43;65.77;101960.66;7403770;19;1683;-63
2022/12/31 01:46:21;;;;;;;;;;;;;;;16.42;65.33;101970.47;7402349;19;1393;-64
2022/12/31 01:48:51;;;;;;;;;;;;;;;16.39;65.27;101961.78;7403429;19;1699;-64
2022/12/31 01:51:21;;;;;;;;;;;;;;;16.40;65.22;101956.38;7401239;19;1678;-64
2022/12/31 01:53:49;;;;;;;;;;;;;;;16.40;64.94;101964.38;7404822;19;1456;-63
2022/12/31 01:56:18;;;;;;;;;;;;;;;16.37;64.83;101966.34;7403759;19;1630;-63
2022/12/31 01:58:49;;;;;;;;;;;;;;;16.38;64.96;101978.75;7402011;19;1853;-63
2022/12/31 02:01:23;;;;;;;;;;;;;;;16.35;64.58;101981.59;7403679;19;1674;-63
2022/12/31 02:03:51;;;;;;;;;;;;;;;16.38;64.60;101984.97;7403107;19;1551;-64
2022/12/31 02:06:22;;;;;;;;;;;;;;;16.35;64.81;101976.25;7403460;19;1356;-64
2022/12/31 02:08:51;;;;;;;;;;;;;;;16.35;64.92;101978.94;7404354;19;1294;-64
2022/12/31 02:11:24;;;;;;;;;;;;;;;16.31;64.52;101978.25;7403800;19;1474;-63
2022/12/31 02:13:54;;;;;;;;;;;;;;;16.29;64.91;101980.13;7403672;19;1737;-63
2022/12/31 02:16:29;;;;;;;;;;;;;;;16.27;64.69;101988.25;7402595;19;1554;-64
2022/12/31 02:19:00;;;;;;;;;;;;;;;16.24;65.02;101967.06;7403323;19;1685;-63
2022/12/31 02:21:55;;;;;;;;;;;;;;;16.20;64.62;101960.19;7401514;19;1353;-64
2022/12/31 02:24:38;;;;;;;;;;;;;;;16.20;64.67;101965.53;7396481;19;1699;-64
2022/12/31 02:27:08;;;;;;;;;;;;;;;16.39;66.05;101983.13;7402707;19;1333;-63
2022/12/31 02:29:57;;;;;;;;;;;;;;;16.54;66.58;101987.59;7401395;19;1358;-64
2022/12/31 02:32:30;;;;;;;;;;;;;;;16.58;66.45;101983.78;7402131;19;1417;-64
2022/12/31 02:35:01;;;;;;;;;;;;;;;16.62;65.51;101988.00;7401625;19;1333;-64
2022/12/31 02:37:31;;;;;;;;;;;;;;;16.61;65.96;101975.63;7402669;19;1862;-63
2022/12/31 02:40:02;;;;;;;;;;;;;;;16.70;66.04;101969.72;7399293;19;1747;-64
2022/12/31 02:42:30;;;;;;;;;;;;;;;16.79;65.68;101980.81;7400364;19;1531;-64
2022/12/31 02:45:01;;;;;;;;;;;;;;;16.80;65.61;101985.22;7403020;19;1500;-64
2022/12/31 02:47:38;;;;;;;;;;;;;;;16.84;65.05;101976.09;7402595;19;1266;-64
2022/12/31 02:50:22;;;;;;;;;;;;;;;16.83;65.21;101979.69;7402297;19;1614;-64
2022/12/31 02:52:56;;;;;;;;;;;;;;;16.75;65.10;101981.94;7405191;19;1114;-64
2022/12/31 02:55:28;;;;;;;;;;;;;;;16.75;65.13;101988.16;7408315;19;1630;-73
2022/12/31 02:57:59;;;;;;;;;;;;;;;16.79;65.13;101996.81;7407913;19;1858;-73
2022/12/31 03:03:13;;;;;;;;;;;;;;;16.83;65.02;102001.06;7402958;19;1485;-73
2022/12/31 03:05:43;;;;;;;;;;;;;;;16.82;64.68;101999.38;7410358;19;1555;-73
2022/12/31 03:08:11;;;;;;;;;;;;;;;16.88;64.55;102012.34;7409664;19;1353;-73
2022/12/31 03:10:41;;;;;;;;;;;;;;;16.88;64.84;102015.88;7410044;19;1768;-72
2022/12/31 03:13:07;;;;;;;;;;;;;;;16.80;65.28;102027.94;7409761;19;1449;-73
2022/12/31 03:15:38;;;;;;;;;;;;;;;16.85;64.74;102020.53;7407772;19;1615;-73
2022/12/31 03:18:08;;;;;;;;;;;;;;;16.88;64.62;101997.19;7407402;19;1849;-73
2022/12/31 03:23:20;;;;;;;;;;;;;;;16.84;64.52;102011.66;7410414;19;731;-73
2022/12/31 03:25:46;;;;;;;;;;;;;;;16.85;64.46;102005.38;7408180;19;1650;-73
2022/12/31 03:28:15;;;;;;;;;;;;;;;16.90;64.57;102013.97;7408577;19;1424;-73
2022/12/31 03:30:48;;;;;;;;;;;;;;;16.92;64.33;101999.69;7408559;19;1552;-73
2022/12/31 03:33:16;;;;;;;;;;;;;;;16.88;64.15;102015.88;7408424;19;1630;-73
2022/12/31 03:35:46;;;;;;;;;;;;;;;16.86;64.37;102016.94;7408820;19;1456;-63
2022/12/31 03:38:15;;;;;;;;;;;;;;;16.91;64.62;102012.19;7406683;19;1853;-64
2022/12/31 03:40:44;;;;;;;;;;;;;;;16.87;64.28;102011.50;7407544;19;1757;-64
2022/12/31 03:43:12;;;;;;;;;;;;;;;16.93;64.20;102018.31;7407311;19;1596;-64
2022/12/31 03:45:42;;;;;;;;;;;;;;;16.92;64.91;102013.03;7404124;19;1271;-65
2022/12/31 03:48:13;;;;;;;;;;;;;;;16.88;64.64;102021.22;7407167;19;1205;-64
2022/12/31 03:50:41;;;;;;;;;;;;;;;16.90;64.69;102018.47;7406191;19;1302;-64
2022/12/31 03:53:09;;;;;;;;;;;;;;;16.89;64.07;102014.06;7407739;19;1260;-64
2022/12/31 03:55:37;;;;;;;;;;;;;;;16.91;64.31;102014.84;7405228;19;1441;-64
2022/12/31 03:58:06;;;;;;;;;;;;;;;16.76;63.78;102013.06;7406860;19;1864;-64
2022/12/31 04:00:35;;;;;;;;;;;;;;;16.69;65.28;102020.53;7405782;19;1551;-64
2022/12/31 04:03:03;;;;;;;;;;;;;;;16.64;65.75;102026.16;7402007;19;1524;-64
2022/12/31 04:05:34;;;;;;;;;;;;;;;16.68;65.66;102003.66;7405949;19;1453;-64
2022/12/31 04:08:02;;;;;;;;;;;;;;;16.64;65.92;102017.31;7405918;19;992;-64
2022/12/31 04:10:31;;;;;;;;;;;;;;;16.62;65.59;102014.72;7407169;19;1468;-64
2022/12/31 04:13:01;;;;;;;;;;;;;;;16.64;66.01;102011.97;7406576;19;1435;-64
2022/12/31 04:15:29;;;;;;;;;;;;;;;16.63;65.79;102026.25;7404751;19;1377;-64
2022/12/31 04:17:58;;;;;;;;;;;;;;;16.63;66.23;102015.56;7404188;19;1860;-64
2022/12/31 04:20:26;;;;;;;;;;;;;;;16.64;66.17;102014.63;7404439;19;1424;-64
2022/12/31 04:22:57;;;;;;;;;;;;;;;16.60;66.27;102011.28;7408178;19;994;-64
2022/12/31 04:25:25;;;;;;;;;;;;;;;16.66;66.44;102013.59;7405433;19;1405;-64
2022/12/31 04:27:53;;;;;;;;;;;;;;;16.64;66.61;102023.50;7402426;19;1412;-64
2022/12/31 04:30:22;;;;;;;;;;;;;;;16.59;66.77;102022.91;7404865;19;1365;-64
2022/12/31 04:32:50;;;;;;;;;;;;;;;16.61;66.51;102017.47;7403749;19;1503;-64
2022/12/31 04:35:18;;;;;;;;;;;;;;;16.63;66.78;102021.78;7404824;19;1384;-64
2022/12/31 04:37:46;;;;;;;;;;;;;;;16.60;66.70;102032.63;7405467;19;1857;-64
2022/12/31 04:40:17;;;;;;;;;;;;;;;16.60;66.75;102037.13;7405397;19;1630;-64
2022/12/31 04:42:46;;;;;;;;;;;;;;;16.61;66.80;102050.41;7405542;19;1520;-64
2022/12/31 04:45:14;;;;;;;;;;;;;;;16.59;66.71;102038.94;7404135;19;1533;-64
2022/12/31 04:47:42;;;;;;;;;;;;;;;16.61;66.92;102041.50;7403868;19;1401;-64
2022/12/31 04:50:11;;;;;;;;;;;;;;;16.59;66.67;102041.63;7406093;19;1460;-64
2022/12/31 04:52:39;;;;;;;;;;;;;;;16.58;66.86;102045.22;7403568;19;885;-65
2022/12/31 04:55:08;;;;;;;;;;;;;;;16.58;66.87;102047.88;7404075;19;1762;-64
2022/12/31 04:57:39;;;;;;;;;;;;;;;16.55;67.20;102045.38;7403284;19;1869;-64
2022/12/31 05:00:08;;;;;;;;;;;;;;;16.46;67.30;102040.59;7405587;19;1464;-73
2022/12/31 05:02:36;;;;;;;;;;;;;;;16.36;67.55;102050.94;7404208;19;1379;-73
2022/12/31 05:05:05;;;;;;;;;;;;;;;16.28;67.86;102053.16;7403924;19;1476;-73
2022/12/31 05:07:33;;;;;;;;;;;;;;;16.28;68.04;102048.69;7403061;19;1526;-73
2022/12/31 05:10:02;;;;;;;;;;;;;;;16.44;67.57;102051.34;7404588;19;1381;-73
2022/12/31 05:12:30;;;;;;;;;;;;;;;16.47;67.39;102058.31;7403071;19;1384;-73
2022/12/31 05:15:01;;;;;;;;;;;;;;;16.40;67.76;102051.63;7406754;19;1543;-73
2022/12/31 05:17:29;;;;;;;;;;;;;;;16.35;68.01;102059.00;7402918;19;1862;-73
2022/12/31 05:19:57;;;;;;;;;;;;;;;16.39;67.62;102060.56;7405337;19;1338;-73
2022/12/31 05:22:32;;;;;;;;;;;;;;;16.47;67.86;102069.88;7402745;19;1306;-73
2022/12/31 05:25:00;;;;;;;;;;;;;;;16.47;67.39;102069.88;7403456;19;1748;-73
2022/12/31 05:27:29;;;;;;;;;;;;;;;16.49;67.41;102072.44;7403646;19;1548;-73
2022/12/31 05:30:01;;;;;;;;;;;;;;;16.47;67.24;102069.00;7403742;19;1529;-73
2022/12/31 05:32:29;;;;;;;;;;;;;;;16.48;67.59;102070.72;7404321;19;1365;-73
2022/12/31 05:34:58;;;;;;;;;;;;;;;16.47;67.84;102085.91;7404886;19;1408;-73
2022/12/31 05:37:27;;;;;;;;;;;;;;;16.46;67.45;102077.97;7401271;19;1544;-73
2022/12/31 05:39:55;;;;;;;;;;;;;;;16.45;67.89;102090.47;7401375;19;1853;-73
2022/12/31 05:42:23;;;;;;;;;;;;;;;16.49;67.67;102086.66;7402828;19;1645;-73
2022/12/31 05:44:52;;;;;;;;;;;;;;;16.46;67.50;102084.16;7402614;19;1541;-73
2022/12/31 05:47:23;;;;;;;;;;;;;;;16.45;67.96;102100.25;7404199;19;1578;-72
2022/12/31 05:49:51;;;;;;;;;;;;;;;16.47;67.87;102095.69;7403809;19;1020;-73
2022/12/31 05:52:21;;;;;;;;;;;;;;;16.44;67.64;102093.22;7403848;19;1480;-73
2022/12/31 05:54:49;;;;;;;;;;;;;;;16.46;67.88;102100.19;7402805;19;1246;-73
2022/12/31 05:57:17;;;;;;;;;;;;;;;16.44;67.57;102096.75;7404307;19;1353;-73
2022/12/31 05:59:46;;;;;;;;;;;;;;;16.44;68.02;102111.91;7402823;19;1902;-73
2022/12/31 06:02:14;;;;;;;;;;;;;;;16.42;67.57;102103.97;7402039;19;1404;-73
2022/12/31 06:04:45;;;;;;;;;;;;;;;16.41;67.72;102122.75;7404459;19;1540;-73
2022/12/31 06:07:13;;;;;;;;;;;;;;;16.41;67.61;102120.06;7401772;19;1863;-73
2022/12/31 06:09:42;;;;;;;;;;;;;;;16.40;67.83;102116.53;7401450;19;1468;-73
2022/12/31 06:12:10;;;;;;;;;;;;;;;16.45;67.68;102134.97;7402148;19;1607;-73
2022/12/31 06:14:38;;;;;;;;;;;;;;;16.51;67.95;102139.97;7403129;19;1361;-73
2022/12/31 06:17:07;;;;;;;;;;;;;;;16.45;67.46;102129.63;7402553;19;1471;-73
2022/12/31 06:19:35;;;;;;;;;;;;;;;16.39;67.62;102138.84;7402659;19;1849;-73
2022/12/31 06:22:06;;;;;;;;;;;;;;;16.24;68.29;102139.69;7403845;19;1262;-73
2022/12/31 06:24:34;;;;;;;;;;;;;;;16.10;68.51;102149.31;7402184;19;1496;-73
2022/12/31 06:27:02;;;;;;;;;;;;;;;16.02;68.65;102148.00;7403662;19;1836;-73
2022/12/31 06:29:31;;;;;;;;;;;;;;;16.00;68.71;102131.22;7409185;19;1432;-73
2022/12/31 06:31:59;;;;;;;;;;;;;;;15.94;68.75;102155.56;7408350;19;1709;-73
2022/12/31 06:34:27;;;;;;;;;;;;;;;15.91;68.79;102100.53;7409700;19;1546;-73
2022/12/31 06:36:55;;;;;;;;;;;;;;;15.87;69.14;102155.00;7411032;19;1682;-73
2022/12/31 06:39:27;;;;;;;;;;;;;;;15.87;69.02;102171.88;7405468;19;1850;-73
2022/12/31 06:41:55;;;;;;;;;;;;;;;15.81;68.95;102166.84;7409936;19;1630;-72
2022/12/31 06:44:24;;;;;;;;;;;;;;;15.86;68.73;102180.84;7411389;19;1602;-72
2022/12/31 06:46:53;;;;;;;;;;;;;;;15.80;69.08;102175.81;7410537;19;1562;-73
2022/12/31 06:49:21;;;;;;;;;;;;;;;15.79;68.89;102184.75;7410243;19;1526;-72
2022/12/31 06:51:50;;;;;;;;;;;;;;;15.76;68.94;102174.25;7409281;19;1489;-73
2022/12/31 06:54:18;;;;;;;;;;;;;;;15.76;69.06;102173.41;7408346;19;1638;-72
2022/12/31 06:56:50;;;;;;;;;;;;;;;15.75;68.96;102187.66;7411788;19;1526;-73
2022/12/31 06:59:26;;;;;;;;;;;;;;;15.76;69.12;102179.59;7407219;19;1850;-65
2022/12/31 07:02:13;;;;;;;;;;;;;;;15.73;69.32;102179.75;7407458;19;1690;-64
2022/12/31 07:04:57;;;;;;;;;;;;;;;15.71;69.05;102189.59;7409377;19;1428;-64
2022/12/31 07:07:31;;;;;;;;;;;;;;;15.67;69.17;102196.88;7409598;19;1523;-64
2022/12/31 07:10:02;;;;;;;;;;;;;;;15.70;69.36;102190.53;7408608;19;1720;-64
2022/12/31 07:12:37;;;;;;;;;;;;;;;15.80;68.83;102191.81;7408449;19;1697;-64
2022/12/31 07:15:07;;;;;;;;;;;;;;;16.34;67.28;102182.78;7407361;19;1440;-64
2022/12/31 07:17:41;;;;;;;;;;;;;;;16.96;65.40;102196.28;7406261;19;1438;-64
2022/12/31 07:20:11;;;;;;;;;;;;;;;17.41;64.30;102195.44;7405547;19;1862;-64
2022/12/31 07:22:40;;;;;;;;;;;;;;;17.71;63.22;102213.28;7409348;19;1615;-64
2022/12/31 07:25:09;;;;;;;;;;;;;;;17.93;62.86;102212.88;7405015;19;1681;-64
2022/12/31 07:27:52;;;;;;;;;;;;;;;18.03;62.35;102200.66;7406598;19;1424;-64
2022/12/31 07:30:24;;;;;;;;;;;;;;;18.16;61.93;102184.69;7406405;19;1677;-64
2022/12/31 07:33:03;;;;;;;;;;;;;;;18.23;62.17;102198.56;7407632;19;1556;-64
2022/12/31 07:35:36;;;;;;;;;;;;;;;18.23;62.08;102217.31;7407249;19;1689;-64
2022/12/31 07:38:09;;;;;;;;;;;;;;;18.19;61.91;102213.97;7407888;19;1683;-64
2022/12/31 07:40:40;;;;;;;;;;;;;;;17.79;62.99;102208.34;7403786;19;1864;-64
2022/12/31 07:43:14;;;;;;;;;;;;;;;17.27;64.65;102222.13;7407895;19;1542;-64
2022/12/31 07:45:49;;;;;;;;;;;;;;;16.92;65.72;102224.97;7404304;19;1531;-63
2022/12/31 07:48:24;;;;;;;;;;;;;;;16.85;66.47;102228.94;7404143;19;1560;-63
2022/12/31 07:50:53;;;;;;;;;;;;;;;16.67;66.82;102209.41;7407793;19;1511;-70
2022/12/31 07:53:21;;;;;;;;;;;;;;;16.62;66.98;102238.19;7406700;19;1448;-69
2022/12/31 07:55:53;;;;;;;;;;;;;;;16.58;67.03;102231.31;7406292;19;1437;-69
2022/12/31 07:58:23;;;;;;;;;;;;;;;16.55;66.90;102236.78;7407596;19;1862;-69
2022/12/31 08:00:57;;;;;;;;;;;;;;;16.56;67.09;102230.53;7406664;19;1661;-69
2022/12/31 08:03:35;;;;;;;;;;;;;;;17.06;65.61;102232.22;7406529;19;1550;-70
2022/12/31 08:06:12;;;;;;;;;;;;;;;17.91;63.41;102224.66;7406300;19;1841;-69
2022/12/31 08:08:48;;;;;;;;;;;;;;;18.76;60.93;102222.91;7406367;19;1345;-69
2022/12/31 08:11:22;;;;;;;;;;;;;;;19.27;59.79;102217.81;7405923;19;1764;-69
2022/12/31 08:13:51;;;;;;;;;;;;;;;19.66;58.55;102208.91;7407056;19;1714;-69
2022/12/31 08:16:23;;;;;;;;;;;;;;;19.82;58.34;102218.66;7406691;19;1405;-69
2022/12/31 08:18:52;;;;;;;;;;;;;;;19.73;58.71;102228.16;6377057;19;10000700;-69
2022/12/31 08:21:25;;;;;;;;;;;;;;;19.61;59.42;102226.28;7400702;19;1731;-69
2022/12/31 08:23:59;;;;;;;;;;;;;;;19.60;59.21;102229.97;7400442;19;1409;-69
2022/12/31 08:26:31;;;;;;;;;;;;;;;19.54;59.63;102219.63;7398175;19;1535;-69
2022/12/31 08:29:08;;;;;;;;;;;;;;;19.39;59.88;102222.38;7402584;19;1310;-69
2022/12/31 08:31:46;;;;;;;;;;;;;;;18.72;61.52;102221.38;7398358;19;1528;-69
2022/12/31 08:34:19;;;;;;;;;;;;;;;18.24;63.13;102221.69;7400316;19;1461;-69
2022/12/31 08:36:52;;;;;;;;;;;;;;;17.93;63.71;102234.31;7399948;19;1635;-69
2022/12/31 08:39:30;;;;;;;;;;;;;;;17.73;64.60;102238.13;7396705;19;1849;-69
2022/12/31 08:42:00;;;;;;;;;;;;;;;17.52;64.84;102228.69;7398474;19;1555;-69
2022/12/31 08:44:37;;;;;;;;;;;;;;;17.41;65.21;102210.63;7400412;19;1468;-69
2022/12/31 08:47:14;;;;;;;;;;;;;;;17.32;65.21;102209.34;7399489;19;1387;-69
2022/12/31 08:49:43;;;;;;;;;;;;;;;17.32;65.51;102225.38;7397790;19;1497;-68
2022/12/31 08:52:16;;;;;;;;;;;;;;;17.25;65.79;102226.69;7397017;19;1587;-68
2022/12/31 08:54:45;;;;;;;;;;;;;;;17.22;65.89;102218.84;7397793;19;1611;-69
2022/12/31 08:57:17;;;;;;;;;;;;;;;17.19;65.77;102208.31;7398765;19;1344;-68
2022/12/31 08:59:51;;;;;;;;;;;;;;;17.16;65.88;102213.84;7396913;19;1883;-69
2022/12/31 09:02:37;;;;;;;;;;;;;;;17.24;66.17;102215.13;7397581;19;1410;-68
2022/12/31 09:05:13;;;;;;;;;;;;;;;17.96;63.92;102204.66;7396698;19;1632;-68
2022/12/31 09:07:42;;;;;;;;;;;;;;;18.58;61.93;102193.69;7395638;19;1629;-68
2022/12/31 09:10:18;;;;;;;;;;;;;;;19.11;60.57;102195.69;7335256;19;13623;-62
2022/12/31 09:12:50;;;;;;;;;;;;;;;19.29;60.12;102186.41;7395510;19;1406;-69
2022/12/31 09:15:22;;;;;;;;;;;;;;;19.45;60.41;102179.03;7398028;19;1325;-69
2022/12/31 09:17:52;;;;;;;;;;;;;;;19.54;60.50;102190.13;7396570;19;2307;-69
2022/12/31 09:20:26;;;;;;;;;;;;;;;19.69;59.95;102202.47;7398137;19;1861;-70
2022/12/31 09:22:55;;;;;;;;;;;;;;;19.73;59.53;102198.66;7399029;19;929;-70
2022/12/31 09:25:26;;;;;;;;;;;;;;;19.64;60.04;102189.38;7395200;19;1358;-75
2022/12/31 09:27:59;;;;;;;;;;;;;;;19.62;59.64;102182.41;7398298;19;1771;-71
2022/12/31 09:30:29;;;;;;;;;;;;;;;19.79;59.46;102171.38;7397374;19;1656;-74
2022/12/31 09:33:03;;;;;;;;;;;;;;;19.77;59.41;102172.47;7398277;19;1326;-71
2022/12/31 09:35:37;;;;;;;;;;;;;;;19.70;59.70;102172.00;7397714;19;1432;-70
2022/12/31 09:38:07;;;;;;;;;;;;;;;19.81;59.87;102168.59;7398687;19;1063;-72
2022/12/31 09:40:49;;;;;;;;;;;;;;;19.79;59.54;102170.53;7401995;19;1822;-70
2022/12/31 09:43:32;;;;;;;;;;;;;;;19.75;58.82;102159.13;7402796;19;1713;-69
2022/12/31 09:46:11;;;;;;;;;;;;;;;19.64;59.28;102162.53;7402987;19;1538;-69
2022/12/31 09:48:52;;;;;;;;;;;;;;;19.62;59.05;102160.94;7402114;19;1657;-67
2022/12/31 09:51:29;;;;;;;;;;;;;;;19.83;58.73;102140.66;7404163;19;1246;-71
2022/12/31 09:54:18;;;;;;;;;;;;;;;19.99;58.70;102139.59;7404283;19;1464;-72
2022/12/31 09:56:49;;;;;;;;;;;;;;;19.99;58.34;102150.34;7403964;19;1543;-71
2022/12/31 09:59:23;;;;;;;;;;;;;;;19.96;58.78;102150.56;7404171;19;1831;-76
2022/12/31 10:01:55;;;;;;;;;;;;;;;19.91;59.13;102150.03;7403219;19;1905;-73
2022/12/31 10:04:38;;;;;;;;;;;;;;;19.90;59.38;102157.22;7405159;19;1009;-73
2022/12/31 10:07:17;;;;;;;;;;;;;;;19.69;60.08;102146.13;7402307;19;1118;-70
2022/12/31 10:09:50;;;;;;;;;;;;;;;18.99;61.68;102138.38;7398970;19;1687;-81
2022/12/31 10:12:38;;;;;;;;;;;;;;;18.67;63.10;102133.28;7392028;19;1518;-73
2022/12/31 10:15:24;;;;;;;;;;;;;;;18.48;63.79;102129.13;7402640;19;1354;-73
2022/12/31 10:17:58;;;;;;;;;;;;;;;18.27;64.63;102139.38;7400971;19;1525;-72
2022/12/31 10:20:32;;;;;;;;;;;;;;;18.22;64.44;102133.47;7400163;19;1837;-75
2022/12/31 10:23:12;;;;;;;;;;;;;;;18.19;64.75;102128.28;7404137;19;980;-75
2022/12/31 10:25:45;;;;;;;;;;;;;;;18.17;64.71;102119.50;7402138;19;1642;-69
2022/12/31 10:28:19;;;;;;;;;;;;;;;18.17;64.80;102116.81;7401812;19;1428;-73
2022/12/31 10:30:55;;;;;;;;;;;;;;;18.13;65.09;102111.75;7401675;19;1434;-70
2022/12/31 10:33:32;;;;;;;;;;;;;;;18.08;65.03;102120.06;7401619;19;1590;-71
2022/12/31 10:36:07;;;;;;;;;;;;;;;18.09;65.06;102116.44;7395793;19;1682;-70
2022/12/31 10:38:45;;;;;;;;;;;;;;;18.12;64.73;102093.97;7403839;19;1044;-76
2022/12/31 10:41:29;;;;;;;;;;;;;;;18.12;64.76;102121.59;7401530;19;1862;-71
2022/12/31 10:44:14;;;;;;;;;;;;;;;18.05;65.18;102125.63;7401642;19;1761;-70
2022/12/31 10:46:58;;;;;;;;;;;;;;;18.06;65.16;102116.63;7402709;19;1587;-80
2022/12/31 10:49:36;;;;;;;;;;;;;;;17.98;65.31;102118.91;7403504;19;1457;-78
2022/12/31 10:52:20;;;;;;;;;;;;;;;17.83;65.30;102116.25;7403241;19;1055;-75
2022/12/31 10:54:59;;;;;;;;;;;;;;;17.81;65.16;102128.84;7401315;19;1642;-74
2022/12/31 10:57:43;;;;;;;;;;;;;;;17.76;65.80;102114.88;7403623;19;1725;-80
2022/12/31 11:00:18;;;;;;;;;;;;;;;17.69;65.64;102127.75;7400784;19;1810;-79
2022/12/31 11:03:01;;;;;;;;;;;;;;;17.64;65.78;102102.25;7399152;19;1939;-64
2022/12/31 11:05:47;;;;;;;;;;;;;;;17.61;65.59;102100.63;7399428;19;1658;-62
2022/12/31 11:08:25;;;;;;;;;;;;;;;17.34;65.33;102089.78;7396829;19;1437;-62
2022/12/31 11:11:13;;;;;;;;;;;;;;;17.26;56.89;102094.72;7401898;19;1603;-62
2022/12/31 11:13:56;;;;;;;;;;;;;;;17.35;57.52;102102.22;7402398;19;1802;-62
2022/12/31 11:16:37;;;;;;;;;;;;;;;17.35;57.09;102096.88;7408766;19;1539;-62
2022/12/31 11:19:11;;;;;;;;;;;;;;;17.37;57.16;102100.31;7408015;19;1681;-62
2022/12/31 11:21:47;;;;;;;;;;;;;;;17.34;56.31;102081.75;7404859;19;1849;-61
2022/12/31 11:24:21;;;;;;;;;;;;;;;17.33;57.09;102098.78;7405036;19;1738;-61
2022/12/31 11:27:00;;;;;;;;;;;;;;;17.15;55.81;102082.00;7408844;19;1460;-66
2022/12/31 11:29:37;;;;;;;;;;;;;;;17.13;58.83;102099.06;7409338;19;1306;-61
2022/12/31 11:32:14;;;;;;;;;;;;;;;17.11;58.81;102091.16;7408093;19;1515;-62
2022/12/31 11:35:03;;;;;;;;;;;;;;;17.18;58.60;102097.00;7407521;19;1531;-62
2022/12/31 11:37:36;;;;;;;;;;;;;;;17.24;55.69;102076.09;7403511;19;1630;-65
2022/12/31 11:40:16;;;;;;;;;;;;;;;17.11;57.59;102096.53;7406267;19;1853;-65
2022/12/31 11:42:51;;;;;;;;;;;;;;;17.05;56.09;102095.06;7407795;19;1721;-64
2022/12/31 11:45:28;;;;;;;;;;;;;;;16.69;53.63;102087.31;7408132;19;1594;-65
2022/12/31 11:48:00;;;;;;;;;;;;;;;16.69;53.54;102090.00;7408468;19;1465;-65
2022/12/31 11:50:36;;;;;;;;;;;;;;;16.70;53.79;102099.75;7406265;19;1602;-65
2022/12/31 11:53:14;;;;;;;;;;;;;;;16.68;54.86;102091.81;7407083;19;948;-65
2022/12/31 11:55:48;;;;;;;;;;;;;;;17.12;54.94;102097.38;7407504;19;1728;-63
2022/12/31 11:58:20;;;;;;;;;;;;;;;17.05;54.28;102091.50;7407908;19;1634;-64
2022/12/31 12:00:54;;;;;;;;;;;;;;;17.13;54.10;102096.41;7406117;19;1842;-64
2022/12/31 12:03:23;;;;;;;;;;;;;;;17.24;55.77;102086.78;7406521;19;1564;-64
2022/12/31 12:05:51;;;;;;;;;;;;;;;17.26;55.25;102078.69;7403500;19;1637;-64
2022/12/31 12:08:19;;;;;;;;;;;;;;;17.13;56.48;102075.03;7396742;19;1225;-64
2022/12/31 12:10:49;;;;;;;;;;;;;;;17.09;56.51;102087.72;7404455;19;1654;-65
2022/12/31 12:13:25;;;;;;;;;;;;;;;17.06;57.04;102087.91;7403657;19;1352;-64
2022/12/31 12:15:55;;;;;;;;;;;;;;;17.03;57.40;102094.28;7406188;19;1566;-64
2022/12/31 12:18:28;;;;;;;;;;;;;;;17.06;57.77;102087.91;7402850;19;1609;-65
2022/12/31 12:21:03;;;;;;;;;;;;;;;17.02;58.18;102097.91;7405173;19;1857;-64
2022/12/31 12:23:31;;;;;;;;;;;;;;;17.01;57.95;102079.28;7403649;19;1804;-65
2022/12/31 12:26:00;;;;;;;;;;;;;;;16.99;58.33;102086.53;7405461;19;1422;-64
2022/12/31 12:28:32;;;;;;;;;;;;;;;16.98;58.40;102093.69;7405126;19;1446;-64
2022/12/31 12:31:01;;;;;;;;;;;;;;;17.00;58.55;102080.25;7404766;19;1426;-64
2022/12/31 12:33:31;;;;;;;;;;;;;;;17.05;58.88;102096.84;7403645;19;1614;-65
2022/12/31 12:36:10;;;;;;;;;;;;;;;17.61;57.08;102091.75;7403219;19;1539;-64
2022/12/31 12:38:38;;;;;;;;;;;;;;;18.42;55.28;102096.50;7405010;19;1543;-65
2022/12/31 12:41:08;;;;;;;;;;;;;;;19.12;53.56;102101.72;7404979;19;1861;-65
2022/12/31 12:43:40;;;;;;;;;;;;;;;19.68;52.57;102102.31;7402486;19;1626;-67
2022/12/31 12:46:19;;;;;;;;;;;;;;;20.01;52.01;102094.69;7404366;19;1545;-67
2022/12/31 12:48:49;;;;;;;;;;;;;;;20.22;52.44;102098.53;7403481;19;1634;-68
2022/12/31 12:51:23;;;;;;;;;;;;;;;20.39;51.83;102093.75;7402707;19;1366;-65
2022/12/31 12:53:59;;;;;;;;;;;;;;;20.23;52.70;102083.25;7405863;19;1472;-65
2022/12/31 12:56:33;;;;;;;;;;;;;;;20.44;53.26;102121.16;7404698;19;973;-65
2022/12/31 12:59:11;;;;;;;;;;;;;;;20.23;56.24;102111.00;7405000;19;1445;-70
2022/12/31 13:01:43;;;;;;;;;;;;;;;19.97;57.67;102107.47;7403297;19;1859;-65
2022/12/31 13:04:26;;;;;;;;;;;;;;;19.13;61.16;102116.00;7401608;19;1623;-71
2022/12/31 13:07:04;;;;;;;;;;;;;;;18.74;62.87;102139.97;7404249;19;1546;-66
2022/12/31 13:09:40;;;;;;;;;;;;;;;18.59;63.31;102141.81;7402681;19;1638;-67
2022/12/31 13:12:13;;;;;;;;;;;;;;;18.47;64.23;102122.03;7404438;19;1479;-70
2022/12/31 13:14:49;;;;;;;;;;;;;;;18.40;64.65;102133.22;7403784;19;1630;-63
2022/12/31 13:17:29;;;;;;;;;;;;;;;18.20;65.91;102135.34;7403828;19;1441;-70
2022/12/31 13:20:00;;;;;;;;;;;;;;;18.16;65.81;102149.88;7403980;19;1606;-73